Inuvik, Canada
Current Conditions -  °F | °C
As of 10:11 AM on Thursday 30 Oct 2014 (Local Time) from CYEV Reporting Station
Light Snow Light Snow  
Wind Chill: 16°   Ceiling: 400
Heat Index: 16°   Visibility: 6mi
Dew Point: 14°   Wind: 0mph
Humidity: 93%   Direction: NA
Pressure: 29.86"   Gusts: NA
Location:  68.36°N, 133.73°W
Report Text: CYEV 301611Z 00000KT 6SM -SN OVC004 M09/M10 A2986 RMK ST8 VIS NE 2 SLP119
Loading
Personal Weather Stations






























Interactive Weather Map
Tropical Storm Tracking
New forecast layout! Learn more

10-Day Weather Forecast

Advertisements
Track Severe Weather on mobile